Lauritzen Yacht Harbor
Updated WEATHER every hour; Delta WATER and tide conditions; live TOWER CAM;
The FISHING report with PHOTOGRAPHS; harbor NEWS Items; before you get UNDERWAY ;
OTHER points of interest; WHO are we? WHAT can we provide? WHERE are we?

Be sure to check out our Facebook Page

24 Hour Weather Archive

                   Temp   Wind   Hum   Dew   Wind                            
   Date    Time    Out   Chill   Out   Pt.  Speed    Hi    Dir   Rain   Bar  
 4/19/21  12:00a   62.9   62.9    --     --   0.0    0.0   ---   0.00  30.139
 4/19/21  12:30a   63.3   63.3    --     --   0.0    0.0   ---   0.00  30.139
 4/19/21   1:00a   63.0   63.0    --     --   0.0    0.0   ---   0.00  30.137
 4/19/21   1:30a   62.5   62.5    --     --   0.0    0.0   ---   0.00  30.139
 4/19/21   2:00a   61.3   61.3    --     --   0.0    0.0   ---   0.00  30.134
 4/19/21   2:30a   60.8   60.8    --     --   0.0    0.0   ---   0.00  30.134
 4/19/21   3:00a   59.9   59.9    --     --   0.0    0.0   ---   0.00  30.137
 4/19/21   3:30a   59.1   59.1    --     --   0.0    0.0   ---   0.00  30.136
 4/19/21   4:00a   58.4   58.4    --     --   0.0    0.0   ---   0.00  30.141
 4/19/21   4:30a   57.3   57.3    --     --   0.0    0.0   ---   0.00  30.148
 4/19/21   5:00a   56.3   56.3    --     --   0.0    0.0   ---   0.00  30.145
 4/19/21   5:30a   55.0   55.0    --     --   0.0    0.0   ---   0.00  30.156
 4/19/21   6:00a   54.2   54.2    --     --   0.0    0.0   ---   0.00  30.159
 4/19/21   6:30a   53.3   53.3    --     --   0.0    0.0   ---   0.00  30.169
 4/19/21   7:00a   53.5   53.5    --     --   0.0    0.0   ---   0.00  30.182
 4/19/21   7:30a   54.3   54.3    --     --   0.0    0.0   ---   0.00  30.196
 4/19/21   8:00a   55.5   55.5    --     --   0.0    0.0   ---   0.00  30.196
 4/19/21   8:30a   57.0   57.0    --     --   0.0    0.0   ---   0.00  30.195
 4/19/21   9:00a   59.8   59.8    --     --   0.0    0.0   ---   0.00  30.197
 4/19/21   9:30a   62.7   62.7    --     --   0.0    0.0   ---   0.00  30.200
 4/19/21  10:00a   66.2   66.2    --     --   0.0    0.0   ---   0.00  30.196
 4/19/21  10:30a   68.8   68.8    --     --   0.0    0.0   ---   0.00  30.192
 4/19/21  11:00a   68.6   68.6    --     --   0.0    0.0   ---   0.00  30.190
 4/19/21  11:30a   69.0   69.0    --     --   0.0    0.0   ---   0.00  30.188
 4/19/21  12:00p   70.2   70.2    --     --   0.0    0.0   ---   0.00  30.183
 4/19/21  12:30p   71.9   71.9    --     --   0.0    0.0   ---   0.00  30.168
 4/19/21   1:00p   73.0   73.0    --     --   0.0    0.0   ---   0.00  30.156
 4/19/21   1:30p   72.5   72.5    --     --   0.0    0.0   ---   0.00  30.144
 4/19/21   2:00p   74.3   74.3    --     --   0.0    0.0   ---   0.00  30.126
 4/19/21   2:30p   76.1   76.1    --     --   0.0    0.0   ---   0.00  30.116
 4/19/21   3:00p   77.2   77.2    --     --   0.0    0.0   ---   0.00  30.106
 4/19/21   3:30p   77.3   77.3    --     --   0.0    0.0   ---   0.00  30.095
 4/19/21   4:00p   77.6   77.6    --     --   0.0    0.0   ---   0.00  30.080
 4/19/21   4:30p   78.4   78.4    --     --   0.0    0.0   ---   0.00  30.069
 4/19/21   5:00p   80.9   80.9    --     --   0.0    0.0   ---   0.00  30.055
 4/19/21   5:30p   80.4   80.4    --     --   0.0    0.0   ---   0.00  30.048
 4/19/21   6:00p   79.4   79.4    --     --   0.0    0.0   ---   0.00  30.056
 4/19/21   6:30p   78.6   78.6    --     --   0.0    0.0   ---   0.00  30.049
 4/19/21   7:00p   76.3   76.3    --     --   0.0    0.0   ---   0.00  30.038
 4/19/21   7:30p   73.6   73.6    --     --   0.0    0.0   ---   0.00  30.030
 4/19/21   8:00p   70.1   70.1    --     --   0.0    0.0   ---   0.00  30.032
 4/19/21   8:30p   66.6   66.6    --     --   0.0    0.0   ---   0.00  30.038
 4/19/21   9:00p   66.7   66.7    --     --   0.0    0.0   ---   0.00  30.036
 4/19/21   9:30p   67.3   67.3    --     --   0.0    0.0   ---   0.00  30.041
 4/19/21  10:00p   67.1   67.1    --     --   0.0    0.0   ---   0.00  30.031
 4/19/21  10:30p   66.0   66.0    --     --   0.0    0.0   ---   0.00  30.036
 4/19/21  11:00p   64.7   64.7    --     --   0.0    0.0   ---   0.00  30.041
 4/19/21  11:30p   63.4   63.4    --     --   0.0    0.0   ---   0.00  30.037
 4/19/21  12:00p   62.9   62.9    --     --   0.0    0.0   ---   0.00  30.035
 4/20/21  12:00a   62.9   62.9    --     --   0.0    0.0   ---   0.00  30.035
 4/20/21  12:30a   63.9   63.9    --     --   0.0    0.0   ---   0.00  30.029
 4/20/21   1:00a   62.6   62.6    --     --   0.0    0.0   ---   0.00  30.033
 4/20/21   1:30a   61.4   61.4    --     --   0.0    0.0   ---   0.00  30.026
 4/20/21   2:00a   58.8   58.8    --     --   0.0    0.0   ---   0.00  30.016
 4/20/21   2:30a   54.5   54.5    --     --   0.0    0.0   ---   0.00  30.012
 4/20/21   3:00a   52.4   52.4    --     --   0.0    0.0   ---   0.00  30.006
 4/20/21   3:30a   52.5   52.5    --     --   0.0    0.0   ---   0.00  30.010
 4/20/21   4:00a   52.4   52.4    --     --   0.0    0.0   ---   0.00  30.010
 4/20/21   4:30a   51.5   51.5    --     --   0.0    0.0   ---   0.00  30.005
 4/20/21   5:00a   51.6   51.6    --     --   0.0    0.0   ---   0.00  29.999
 4/20/21   5:30a   52.4   52.4    --     --   0.0    0.0   ---   0.00  30.003
 4/20/21   6:00a   55.0   55.0    --     --   0.0    0.0   ---   0.00  30.008
 4/20/21   6:30a   52.9   52.9    --     --   0.0    0.0   ---   0.00  30.016
 4/20/21   7:00a   51.5   51.5    --     --   0.0    0.0   ---   0.00  30.021
 4/20/21   7:30a   52.8   52.8    --     --   0.0    0.0   ---   0.00  30.019


Send questions or comments to:
Some of the material in this website is copyrighted © by Lauritzen Yacht Harbor and may not be used by others without our specific permission.
All rights are reserved. iPhone friendly. Viewed best with Mozilla Firefox